createdAt,value
2018-12-15T00:00:03.916Z,22.40
2018-12-15T00:02:33.103Z,22.50
2018-12-15T00:05:02.287Z,22.50
2018-12-15T00:07:31.486Z,22.50
2018-12-15T00:10:00.666Z,22.50
2018-12-15T00:12:30.204Z,22.50
2018-12-15T00:14:59.418Z,22.30
2018-12-15T00:17:28.634Z,22.50
2018-12-15T00:19:57.816Z,22.80
2018-12-15T00:22:27.028Z,23.10
2018-12-15T00:24:56.317Z,23.20
2018-12-15T00:27:25.525Z,22.90
2018-12-15T00:29:54.724Z,23.10
2018-12-15T00:32:23.921Z,23.20
2018-12-15T00:34:53.122Z,23.30
2018-12-15T00:37:22.429Z,23.30
2018-12-15T00:39:51.634Z,23.20
2018-12-15T00:42:20.805Z,23.20
2018-12-15T00:44:50.154Z,23.10
2018-12-15T00:47:19.309Z,23.10
2018-12-15T00:49:48.562Z,22.90
2018-12-15T00:52:17.797Z,22.90
2018-12-15T00:54:47.027Z,23.00
2018-12-15T00:57:16.246Z,23.10
2018-12-15T00:59:45.460Z,23.20
2018-12-15T01:02:15.418Z,23.30
2018-12-15T01:04:44.636Z,23.10
2018-12-15T01:07:13.872Z,23.00
2018-12-15T01:09:43.099Z,23.10
2018-12-15T01:12:12.354Z,23.00
2018-12-15T01:14:41.565Z,23.10
2018-12-15T01:17:10.772Z,23.00
2018-12-15T01:19:39.934Z,22.90
2018-12-15T01:22:09.200Z,23.10
2018-12-15T01:24:38.448Z,23.10
2018-12-15T01:27:07.623Z,23.20
2018-12-15T01:29:36.848Z,23.20
2018-12-15T01:32:06.053Z,23.40
2018-12-15T01:34:35.248Z,23.50
2018-12-15T01:37:04.530Z,23.60
2018-12-15T01:39:33.768Z,23.70
2018-12-15T01:42:02.966Z,23.80
2018-12-15T01:44:32.245Z,23.90
2018-12-15T01:47:01.531Z,23.90
2018-12-15T01:49:30.805Z,24.00
2018-12-15T01:52:00.136Z,24.10
2018-12-15T01:54:29.417Z,24.10
2018-12-15T01:56:58.641Z,24.10
2018-12-15T01:59:27.978Z,24.00
2018-12-15T02:01:57.237Z,24.10
2018-12-15T02:04:26.897Z,24.10
2018-12-15T02:06:56.141Z,24.10
2018-12-15T02:09:25.376Z,24.10
2018-12-15T02:11:54.534Z,24.10
2018-12-15T02:14:23.789Z,24.10
2018-12-15T02:16:52.989Z,24.00
2018-12-15T02:19:22.155Z,24.00
2018-12-15T02:21:51.349Z,23.90
2018-12-15T02:24:20.554Z,23.80
2018-12-15T02:26:49.794Z,23.70
2018-12-15T02:29:19.019Z,23.60
2018-12-15T02:31:48.210Z,23.60
2018-12-15T02:34:17.467Z,23.60
2018-12-15T02:36:46.891Z,23.60
2018-12-15T02:39:16.350Z,23.50
2018-12-15T02:41:47.322Z,23.60
2018-12-15T02:44:17.017Z,23.50
2018-12-15T02:46:46.265Z,23.40
2018-12-15T02:49:15.438Z,23.40
2018-12-15T02:51:44.607Z,23.50
2018-12-15T02:54:15.965Z,23.40
2018-12-15T02:56:45.145Z,23.40
2018-12-15T02:59:14.916Z,23.30
2018-12-15T03:01:44.162Z,23.30
2018-12-15T03:04:13.397Z,23.30
2018-12-15T03:06:42.890Z,23.20
2018-12-15T03:09:12.081Z,23.20
2018-12-15T03:11:41.296Z,23.20
2018-12-15T03:14:10.811Z,23.20
2018-12-15T03:16:44.315Z,23.10
2018-12-15T03:19:13.696Z,23.00
2018-12-15T03:21:42.896Z,23.10
2018-12-15T03:24:12.091Z,23.10
2018-12-15T03:26:41.284Z,23.10
2018-12-15T03:29:10.529Z,23.00
2018-12-15T03:31:39.743Z,23.00
2018-12-15T03:34:08.909Z,23.00
2018-12-15T03:36:38.142Z,23.00
2018-12-15T03:39:07.425Z,23.00
2018-12-15T03:41:36.668Z,22.90
2018-12-15T03:44:05.934Z,22.90
2018-12-15T03:46:35.134Z,22.90
2018-12-15T03:49:04.379Z,22.80
2018-12-15T03:51:33.547Z,22.70
2018-12-15T03:54:02.714Z,22.70
2018-12-15T03:56:31.926Z,22.70
2018-12-15T03:59:01.136Z,22.70
2018-12-15T04:01:30.348Z,22.70
2018-12-15T04:03:59.565Z,22.70
2018-12-15T04:06:28.757Z,22.70
2018-12-15T04:08:58.153Z,22.60
2018-12-15T04:11:27.347Z,22.60
2018-12-15T04:13:56.578Z,22.60
2018-12-15T04:16:25.867Z,22.70
2018-12-15T04:18:55.094Z,22.80
2018-12-15T04:21:24.308Z,22.80
2018-12-15T04:23:53.497Z,22.70
2018-12-15T04:26:22.708Z,22.50
2018-12-15T04:28:51.882Z,22.50
2018-12-15T04:31:21.071Z,22.50
2018-12-15T04:33:50.311Z,22.50
2018-12-15T04:36:19.854Z,22.50
2018-12-15T04:38:49.076Z,22.50
2018-12-15T04:41:18.291Z,22.40
2018-12-15T04:43:47.766Z,22.40
2018-12-15T04:46:16.947Z,22.30
2018-12-15T04:48:46.136Z,22.30
2018-12-15T04:51:15.391Z,22.20
2018-12-15T04:53:44.634Z,22.10
2018-12-15T04:56:14.604Z,22.00
2018-12-15T04:58:43.760Z,21.90
2018-12-15T05:01:12.966Z,21.90
2018-12-15T05:03:42.158Z,21.90
2018-12-15T05:06:11.316Z,22.10
2018-12-15T05:08:40.520Z,22.00
2018-12-15T05:11:10.318Z,21.90
2018-12-15T05:13:39.478Z,22.00
2018-12-15T05:16:08.766Z,21.70
2018-12-15T05:18:38.225Z,21.50
2018-12-15T05:21:07.434Z,21.60
2018-12-15T05:23:36.635Z,21.60
2018-12-15T05:26:05.808Z,21.60
2018-12-15T05:28:34.967Z,21.60
2018-12-15T05:31:04.143Z,21.60
2018-12-15T05:33:33.310Z,21.60
2018-12-15T05:36:02.638Z,21.60
2018-12-15T05:38:31.851Z,21.60
2018-12-15T05:41:01.053Z,21.60
2018-12-15T05:43:30.262Z,21.60
2018-12-15T05:45:59.471Z,21.60
2018-12-15T05:48:28.689Z,21.70
2018-12-15T05:50:57.861Z,21.70
2018-12-15T05:53:27.066Z,21.60
2018-12-15T05:55:56.491Z,21.50
2018-12-15T05:58:25.677Z,21.50
2018-12-15T06:00:54.894Z,21.50
2018-12-15T06:03:24.116Z,21.50
2018-12-15T06:05:53.303Z,21.60
2018-12-15T06:08:22.519Z,21.50
2018-12-15T06:10:51.683Z,21.60
2018-12-15T06:13:21.605Z,21.60
2018-12-15T06:15:50.840Z,21.60
2018-12-15T06:18:20.086Z,21.50
2018-12-15T06:20:49.278Z,21.50
2018-12-15T06:23:18.505Z,21.40
2018-12-15T06:25:47.671Z,21.40
2018-12-15T06:28:16.813Z,21.30
2018-12-15T06:30:46.003Z,21.40
2018-12-15T06:33:15.170Z,21.40
2018-12-15T06:35:44.394Z,21.40
2018-12-15T06:38:13.568Z,21.40
2018-12-15T06:40:42.792Z,21.40
2018-12-15T06:43:12.005Z,21.30
2018-12-15T06:45:41.151Z,21.30
2018-12-15T06:48:10.360Z,21.30
2018-12-15T06:50:39.521Z,21.20
2018-12-15T06:53:08.718Z,21.20
2018-12-15T06:55:37.945Z,21.20
2018-12-15T06:58:07.150Z,21.20
2018-12-15T07:00:36.369Z,21.20
2018-12-15T07:03:05.532Z,21.20
2018-12-15T07:05:34.745Z,21.40
2018-12-15T07:08:03.978Z,21.20
2018-12-15T07:10:33.131Z,21.30
2018-12-15T07:13:02.316Z,21.40
2018-12-15T07:15:31.844Z,21.30
2018-12-15T07:18:01.107Z,21.40
2018-12-15T07:20:30.282Z,21.40
2018-12-15T07:22:59.507Z,21.50
2018-12-15T07:25:28.716Z,21.50
2018-12-15T07:27:57.892Z,21.50
2018-12-15T07:30:27.421Z,21.30
2018-12-15T07:32:56.591Z,21.10
2018-12-15T07:35:25.753Z,21.20
2018-12-15T07:37:54.951Z,21.10
2018-12-15T07:40:24.197Z,21.00
2018-12-15T07:42:53.357Z,21.10
2018-12-15T07:45:22.572Z,21.20
2018-12-15T07:47:51.731Z,21.10
2018-12-15T07:50:21.743Z,21.20
2018-12-15T07:52:50.906Z,21.20
2018-12-15T07:55:20.098Z,21.00
2018-12-15T07:57:49.328Z,21.00
2018-12-15T08:00:19.562Z,21.00
2018-12-15T08:02:48.836Z,21.20
2018-12-15T08:05:17.999Z,21.10
2018-12-15T08:07:47.183Z,21.00
2018-12-15T08:10:18.674Z,21.00
2018-12-15T08:12:49.999Z,20.60
2018-12-15T08:15:19.243Z,20.50
2018-12-15T08:17:48.976Z,20.50
2018-12-15T08:20:18.169Z,20.50
2018-12-15T08:22:47.339Z,20.70
2018-12-15T08:25:16.526Z,20.80
2018-12-15T08:27:45.705Z,20.80
2018-12-15T08:30:14.869Z,20.70
2018-12-15T08:32:45.463Z,20.70
2018-12-15T08:35:15.175Z,20.60
2018-12-15T08:37:44.334Z,20.40
2018-12-15T08:40:13.727Z,20.50
2018-12-15T08:42:42.894Z,20.20
2018-12-15T08:45:12.173Z,20.00
2018-12-15T08:47:41.395Z,20.20
2018-12-15T08:50:10.676Z,20.30
2018-12-15T08:52:39.884Z,20.50
2018-12-15T08:55:09.144Z,20.30
2018-12-15T08:57:38.319Z,20.20
2018-12-15T09:00:07.802Z,20.10
2018-12-15T09:02:37.002Z,20.10
2018-12-15T09:05:06.345Z,20.20
2018-12-15T09:07:35.540Z,20.00
2018-12-15T09:10:04.856Z,19.80
2018-12-15T09:12:34.431Z,20.00
2018-12-15T09:15:03.668Z,20.20
2018-12-15T09:17:32.911Z,20.40
2018-12-15T09:20:02.455Z,20.20
2018-12-15T09:22:31.647Z,20.20
2018-12-15T09:25:00.877Z,20.10
2018-12-15T09:27:30.032Z,20.30
2018-12-15T09:29:59.216Z,20.50
2018-12-15T09:32:28.456Z,20.40
2018-12-15T09:34:57.746Z,20.30
2018-12-15T09:37:26.910Z,20.30
2018-12-15T09:39:56.066Z,20.10
2018-12-15T09:42:25.245Z,20.10
2018-12-15T09:44:54.446Z,20.00
2018-12-15T09:47:23.647Z,20.00
2018-12-15T09:49:52.881Z,20.00
2018-12-15T09:52:22.112Z,20.10
2018-12-15T09:54:51.343Z,20.10
2018-12-15T09:57:20.502Z,20.00
2018-12-15T09:59:49.711Z,20.00
2018-12-15T10:02:19.358Z,19.90
2018-12-15T10:04:48.705Z,19.90
2018-12-15T10:07:17.847Z,20.00
2018-12-15T10:09:47.250Z,19.70
2018-12-15T10:12:16.470Z,19.50
2018-12-15T10:14:45.914Z,19.50
2018-12-15T10:17:15.070Z,19.70
2018-12-15T10:19:44.254Z,19.60
2018-12-15T10:22:14.000Z,19.70
2018-12-15T10:24:43.191Z,19.60
2018-12-15T10:27:12.417Z,19.80
2018-12-15T10:29:47.142Z,19.70
2018-12-15T10:32:21.699Z,19.90
2018-12-15T10:34:50.916Z,19.80
2018-12-15T10:37:20.080Z,19.70
2018-12-15T10:39:49.284Z,19.80
2018-12-15T10:42:18.441Z,19.70
2018-12-15T10:44:47.609Z,19.60
2018-12-15T10:47:16.802Z,19.60
2018-12-15T10:49:45.974Z,19.50
2018-12-15T10:52:15.152Z,19.50
2018-12-15T10:54:44.458Z,19.60
2018-12-15T10:57:13.971Z,19.60
2018-12-15T10:59:43.173Z,19.50
2018-12-15T11:02:12.397Z,19.50
2018-12-15T11:04:41.557Z,19.50
2018-12-15T11:07:10.807Z,19.40
2018-12-15T11:09:39.998Z,19.40
2018-12-15T11:12:09.163Z,19.50
2018-12-15T11:14:38.305Z,19.50
2018-12-15T11:17:07.533Z,19.50
2018-12-15T11:19:37.290Z,19.40
2018-12-15T11:22:06.882Z,19.40
2018-12-15T11:24:36.456Z,19.40
2018-12-15T11:27:05.685Z,19.40
2018-12-15T11:29:34.872Z,19.40
2018-12-15T11:32:04.961Z,19.40
2018-12-15T11:34:34.176Z,19.40
2018-12-15T11:37:03.323Z,19.30
2018-12-15T11:39:32.508Z,19.40
2018-12-15T11:42:01.752Z,19.30
2018-12-15T11:44:30.999Z,19.30
2018-12-15T11:47:00.221Z,19.20
2018-12-15T11:49:29.394Z,19.20
2018-12-15T11:51:58.595Z,19.20
2018-12-15T11:54:27.814Z,19.00
2018-12-15T11:56:56.997Z,19.00
2018-12-15T11:59:26.201Z,19.00
2018-12-15T12:01:55.617Z,18.90
2018-12-15T12:04:24.797Z,19.00
2018-12-15T12:06:54.003Z,18.80
2018-12-15T12:09:23.207Z,18.70
2018-12-15T12:11:52.370Z,18.60
2018-12-15T12:14:21.573Z,18.50
2018-12-15T12:16:50.884Z,18.40
2018-12-15T12:19:20.118Z,18.30
2018-12-15T12:21:49.337Z,18.20
2018-12-15T12:24:18.505Z,18.20
2018-12-15T12:26:48.143Z,18.10
2018-12-15T12:29:17.378Z,18.00
2018-12-15T12:31:46.567Z,17.90
2018-12-15T12:34:15.769Z,17.90
2018-12-15T12:36:44.933Z,17.90
2018-12-15T12:39:14.183Z,17.80
2018-12-15T12:41:43.404Z,17.70
2018-12-15T12:44:12.628Z,17.70
2018-12-15T12:46:41.889Z,17.60
2018-12-15T12:49:11.111Z,17.80
2018-12-15T12:51:40.344Z,17.80
2018-12-15T12:54:09.571Z,18.00
2018-12-15T12:56:38.804Z,18.30
2018-12-15T12:59:07.973Z,18.70
2018-12-15T13:01:37.140Z,18.90
2018-12-15T13:04:06.388Z,18.90
2018-12-15T13:06:35.655Z,19.00
2018-12-15T13:09:07.071Z,19.20
2018-12-15T13:11:36.345Z,19.60
2018-12-15T13:14:05.594Z,20.10
2018-12-15T13:16:34.757Z,20.60
2018-12-15T13:19:04.005Z,20.90
2018-12-15T13:21:33.282Z,20.70
2018-12-15T13:24:02.482Z,20.50
2018-12-15T13:26:31.704Z,20.40
2018-12-15T13:29:01.394Z,20.40
2018-12-15T13:31:30.593Z,20.60
2018-12-15T13:33:59.839Z,20.60
2018-12-15T13:36:29.108Z,20.50
2018-12-15T13:38:58.406Z,20.30
2018-12-15T13:41:27.637Z,20.10
2018-12-15T13:43:56.863Z,19.90
2018-12-15T13:46:26.054Z,19.90
2018-12-15T13:48:55.278Z,19.60
2018-12-15T13:51:24.519Z,20.10
2018-12-15T13:53:53.899Z,20.50
2018-12-15T13:56:23.041Z,20.40
2018-12-15T13:58:52.250Z,20.40
2018-12-15T14:01:21.626Z,20.20
2018-12-15T14:03:50.818Z,20.40
2018-12-15T14:06:20.086Z,20.40
2018-12-15T14:08:49.288Z,20.50
2018-12-15T14:11:18.511Z,20.40
2018-12-15T14:13:47.718Z,20.50
2018-12-15T14:16:16.878Z,20.70
2018-12-15T14:18:46.042Z,20.80
2018-12-15T14:21:15.265Z,20.40
2018-12-15T14:23:44.573Z,20.00
2018-12-15T14:26:13.765Z,20.10
2018-12-15T14:28:42.931Z,20.20
2018-12-15T14:31:12.458Z,20.10
2018-12-15T14:33:41.658Z,20.20
2018-12-15T14:36:10.818Z,20.20
2018-12-15T14:38:40.030Z,20.20
2018-12-15T14:41:09.262Z,20.10
2018-12-15T14:43:38.415Z,20.40
2018-12-15T14:46:07.672Z,20.60
2018-12-15T14:48:38.350Z,21.00
2018-12-15T14:51:07.516Z,21.50
2018-12-15T14:53:36.728Z,21.50
2018-12-15T14:56:05.947Z,21.90
2018-12-15T14:58:35.127Z,22.30
2018-12-15T15:01:04.517Z,21.90
2018-12-15T15:03:33.722Z,22.70
2018-12-15T15:06:02.895Z,22.70
2018-12-15T15:08:32.069Z,22.50
2018-12-15T15:11:01.296Z,22.60
2018-12-15T15:13:34.507Z,22.80
2018-12-15T15:16:01.865Z,22.90
2018-12-15T15:18:31.054Z,22.90
2018-12-15T15:21:00.212Z,23.50
2018-12-15T15:23:29.410Z,24.20
2018-12-15T15:25:59.629Z,24.70
2018-12-15T15:28:28.993Z,24.90
2018-12-15T15:30:58.166Z,25.50
2018-12-15T15:33:28.150Z,26.00
2018-12-15T15:35:57.342Z,26.10
2018-12-15T15:38:26.494Z,26.20
2018-12-15T15:40:55.783Z,26.70
2018-12-15T15:43:24.945Z,26.80
2018-12-15T15:45:54.186Z,27.00
2018-12-15T15:48:23.377Z,27.30
2018-12-15T15:50:52.586Z,26.60
2018-12-15T15:53:21.792Z,27.20
2018-12-15T15:55:51.060Z,26.40
2018-12-15T15:58:20.246Z,26.80
2018-12-15T16:00:49.467Z,27.70
2018-12-15T16:03:18.640Z,27.90
2018-12-15T16:05:47.883Z,27.20
2018-12-15T16:08:17.136Z,27.40
2018-12-15T16:10:46.322Z,27.90
2018-12-15T16:13:15.503Z,28.10
2018-12-15T16:15:44.687Z,28.40
2018-12-15T16:18:13.905Z,27.90
2018-12-15T16:20:43.490Z,28.10
2018-12-15T16:23:12.906Z,28.70
2018-12-15T16:25:42.094Z,29.20
2018-12-15T16:28:11.310Z,29.80
2018-12-15T16:30:40.479Z,30.30
2018-12-15T16:33:09.743Z,30.10
2018-12-15T16:35:39.320Z,30.00
2018-12-15T16:38:09.420Z,30.60
2018-12-15T16:40:38.653Z,30.30
2018-12-15T16:43:07.897Z,30.50
2018-12-15T16:45:37.100Z,31.10
2018-12-15T16:48:06.304Z,31.40
2018-12-15T16:50:39.744Z,31.10
2018-12-15T16:53:08.961Z,30.60
2018-12-15T16:55:38.365Z,30.30
2018-12-15T16:58:07.782Z,30.10
2018-12-15T17:00:36.997Z,30.40
2018-12-15T17:03:06.232Z,29.80
2018-12-15T17:05:35.446Z,29.20
2018-12-15T17:08:04.632Z,28.40
2018-12-15T17:10:33.804Z,28.50
2018-12-15T17:13:03.016Z,28.70
2018-12-15T17:15:32.251Z,27.70
2018-12-15T17:18:01.430Z,28.30
2018-12-15T17:20:30.585Z,28.30
2018-12-15T17:22:59.839Z,28.70
2018-12-15T17:25:29.043Z,28.90
2018-12-15T17:27:58.245Z,28.50
2018-12-15T17:30:27.481Z,29.10
2018-12-15T17:32:56.861Z,29.30
2018-12-15T17:35:26.038Z,29.30
2018-12-15T17:37:55.483Z,29.50
2018-12-15T17:40:24.635Z,29.50
2018-12-15T17:42:53.850Z,27.80
2018-12-15T17:45:23.241Z,28.10
2018-12-15T17:47:52.503Z,28.40
2018-12-15T17:50:21.778Z,28.10
2018-12-15T17:52:51.593Z,28.40
2018-12-15T17:55:20.871Z,28.90
2018-12-15T17:57:50.137Z,28.90
2018-12-15T18:00:21.788Z,28.60
2018-12-15T18:02:51.408Z,28.70
2018-12-15T18:05:21.146Z,28.30
2018-12-15T18:07:50.355Z,28.90
2018-12-15T18:10:21.110Z,29.30
2018-12-15T18:12:50.416Z,29.30
2018-12-15T18:15:20.025Z,28.50
2018-12-15T18:17:49.242Z,28.50
2018-12-15T18:20:18.451Z,29.20
2018-12-15T18:22:47.704Z,29.00
2018-12-15T18:25:16.909Z,29.10
2018-12-15T18:27:46.210Z,28.80
2018-12-15T18:30:15.513Z,28.10
2018-12-15T18:32:44.713Z,27.90
2018-12-15T18:35:13.944Z,27.50
2018-12-15T18:37:43.229Z,28.40
2018-12-15T18:40:12.908Z,28.70
2018-12-15T18:42:42.109Z,28.60
2018-12-15T18:45:11.352Z,29.30
2018-12-15T18:47:40.634Z,29.40
2018-12-15T18:50:09.985Z,29.10
2018-12-15T18:52:39.191Z,29.70
2018-12-15T18:55:08.621Z,29.90
2018-12-15T18:57:37.822Z,29.10
2018-12-15T19:00:09.119Z,28.90
2018-12-15T19:02:38.300Z,28.60
2018-12-15T19:05:07.932Z,29.30
2018-12-15T19:07:37.106Z,29.70
2018-12-15T19:10:09.290Z,29.60
2018-12-15T19:12:38.630Z,29.80
2018-12-15T19:15:09.373Z,30.00
2018-12-15T19:17:38.708Z,30.00
2018-12-15T19:20:08.183Z,29.70
2018-12-15T19:22:37.365Z,29.30
2018-12-15T19:25:06.698Z,29.80
2018-12-15T19:27:38.836Z,29.00
2018-12-15T19:30:11.481Z,29.50
2018-12-15T19:32:40.749Z,30.00
2018-12-15T19:35:09.939Z,30.30
2018-12-15T19:37:39.253Z,29.90
2018-12-15T19:40:08.543Z,28.60
2018-12-15T19:42:38.337Z,28.80
2018-12-15T19:45:09.035Z,28.30
2018-12-15T19:47:38.242Z,28.30
2018-12-15T19:50:07.786Z,28.70
2018-12-15T19:52:36.994Z,27.80
2018-12-15T19:55:07.397Z,27.10
2018-12-15T19:57:36.614Z,27.20
2018-12-15T20:00:07.847Z,28.10
2018-12-15T20:02:37.101Z,28.10
2018-12-15T20:05:06.545Z,28.30
2018-12-15T20:07:35.886Z,28.30
2018-12-15T20:10:06.004Z,28.60
2018-12-15T20:12:36.475Z,29.10
2018-12-15T20:15:06.141Z,27.70
2018-12-15T20:17:35.355Z,27.90
2018-12-15T20:20:05.232Z,28.00
2018-12-15T20:22:34.611Z,28.10
2018-12-15T20:25:03.858Z,28.60
2018-12-15T20:27:33.122Z,28.50
2018-12-15T20:30:02.358Z,28.40
2018-12-15T20:32:31.537Z,28.80
2018-12-15T20:35:00.690Z,28.70
2018-12-15T20:37:29.857Z,28.70
2018-12-15T20:39:59.056Z,28.00
2018-12-15T20:42:28.241Z,27.00
2018-12-15T20:44:58.062Z,27.90
2018-12-15T20:47:28.010Z,27.80
2018-12-15T20:49:57.406Z,27.90
2018-12-15T20:52:26.568Z,28.40
2018-12-15T20:54:55.765Z,28.80
2018-12-15T20:57:25.002Z,29.10
2018-12-15T20:59:54.232Z,29.20
2018-12-15T21:02:24.190Z,29.00
2018-12-15T21:04:53.484Z,28.80
2018-12-15T21:07:22.690Z,28.70
2018-12-15T21:09:51.932Z,28.40
2018-12-15T21:12:21.367Z,28.40
2018-12-15T21:14:50.645Z,28.40
2018-12-15T21:17:19.910Z,28.30
2018-12-15T21:19:50.707Z,28.10
2018-12-15T21:22:20.505Z,28.10
2018-12-15T21:24:49.985Z,28.00
2018-12-15T21:27:19.262Z,27.80
2018-12-15T21:29:48.498Z,27.60
2018-12-15T21:32:17.757Z,27.70
2018-12-15T21:34:48.462Z,27.40
2018-12-15T21:37:18.213Z,27.20
2018-12-15T21:39:47.476Z,26.80
2018-12-15T21:42:16.671Z,26.00
2018-12-15T21:44:45.885Z,25.90
2018-12-15T21:47:15.390Z,26.30
2018-12-15T21:49:44.578Z,26.10
2018-12-15T21:52:14.117Z,26.00
2018-12-15T21:54:43.268Z,25.70
2018-12-15T21:57:12.467Z,25.80
2018-12-15T21:59:41.643Z,25.80
2018-12-15T22:02:10.893Z,25.50
2018-12-15T22:04:40.100Z,25.30
2018-12-15T22:07:09.306Z,25.20
2018-12-15T22:09:38.677Z,25.00
2018-12-15T22:12:07.939Z,24.80
2018-12-15T22:14:37.127Z,24.70
2018-12-15T22:17:06.312Z,24.70
2018-12-15T22:19:36.313Z,24.40
2018-12-15T22:22:05.581Z,24.40
2018-12-15T22:24:34.793Z,24.30
2018-12-15T22:27:04.211Z,24.10
2018-12-15T22:29:34.214Z,24.00
2018-12-15T22:32:03.455Z,24.00
2018-12-15T22:34:32.699Z,24.00
2018-12-15T22:37:01.910Z,23.90
2018-12-15T22:39:31.142Z,24.00
2018-12-15T22:42:00.386Z,24.00
2018-12-15T22:44:29.575Z,23.60
2018-12-15T22:46:58.919Z,23.60
2018-12-15T22:49:28.371Z,23.50
2018-12-15T22:51:57.552Z,22.90
2018-12-15T22:54:26.785Z,22.90
2018-12-15T22:56:55.949Z,22.80
2018-12-15T22:59:25.375Z,23.00
2018-12-15T23:01:54.615Z,22.90
2018-12-15T23:04:23.831Z,22.60
2018-12-15T23:06:53.039Z,22.50
2018-12-15T23:09:22.241Z,22.40
2018-12-15T23:11:53.485Z,22.30
2018-12-15T23:14:22.766Z,22.30
2018-12-15T23:16:52.038Z,22.00
2018-12-15T23:19:21.337Z,21.80
2018-12-15T23:21:50.745Z,21.70
2018-12-15T23:24:19.914Z,21.60
2018-12-15T23:26:49.063Z,21.60
2018-12-15T23:29:18.279Z,21.70
2018-12-15T23:31:47.626Z,21.60
2018-12-15T23:34:16.846Z,21.40
2018-12-15T23:36:46.097Z,20.80
2018-12-15T23:39:15.684Z,20.80
2018-12-15T23:41:45.048Z,20.80
2018-12-15T23:44:14.405Z,20.80
2018-12-15T23:46:43.652Z,20.80
2018-12-15T23:49:12.907Z,20.80
2018-12-15T23:51:42.976Z,20.80
2018-12-15T23:54:12.527Z,20.70
2018-12-15T23:56:41.794Z,20.70
2018-12-15T23:59:11.004Z,20.60
